createdAt,value
2023-06-10T00:00:34.490Z,0
2023-06-10T00:01:50.771Z,0
2023-06-10T00:03:07.073Z,0
2023-06-10T00:04:22.379Z,0
2023-06-10T00:05:38.680Z,0
2023-06-10T00:06:54.962Z,0
2023-06-10T00:08:11.271Z,0
2023-06-10T00:09:27.567Z,0
2023-06-10T00:10:43.849Z,0
2023-06-10T00:12:00.190Z,0
2023-06-10T00:13:16.443Z,0
2023-06-10T00:14:32.727Z,0
2023-06-10T00:15:49.068Z,0
2023-06-10T00:17:05.314Z,0
2023-06-10T00:18:21.620Z,0
2023-06-10T00:19:37.902Z,0
2023-06-10T00:20:53.223Z,0
2023-06-10T00:22:09.514Z,0
2023-06-10T00:23:25.796Z,0
2023-06-10T00:24:42.097Z,0
2023-06-10T00:25:58.392Z,0
2023-06-10T00:27:14.692Z,0
2023-06-10T00:28:30.984Z,0
2023-06-10T00:29:47.263Z,0
2023-06-10T00:31:03.558Z,0
2023-06-10T00:32:19.856Z,0
2023-06-10T00:33:36.150Z,0
2023-06-10T00:34:52.000Z,0
2023-06-10T00:36:08.742Z,0
2023-06-10T00:37:24.061Z,0
2023-06-10T00:38:40.337Z,0
2023-06-10T00:39:56.637Z,0
2023-06-10T00:41:12.928Z,0
2023-06-10T00:42:29.223Z,0
2023-06-10T00:43:45.528Z,0
2023-06-10T00:45:01.803Z,0
2023-06-10T00:46:18.102Z,0
2023-06-10T00:48:50.699Z,0
2023-06-10T00:50:06.992Z,0
2023-06-10T00:51:23.287Z,0
2023-06-10T00:52:39.572Z,0
2023-06-10T00:53:54.886Z,0
2023-06-10T00:55:10.210Z,0
2023-06-10T00:56:26.493Z,0
2023-06-10T00:57:42.784Z,0
2023-06-10T00:58:59.073Z,0
2023-06-10T01:00:15.370Z,0
2023-06-10T01:01:31.659Z,0
2023-06-10T01:02:47.965Z,0
2023-06-10T01:04:04.262Z,0
2023-06-10T01:05:20.547Z,0
2023-06-10T01:06:36.838Z,0
2023-06-10T01:07:53.128Z,0
2023-06-10T01:09:09.423Z,0
2023-06-10T01:10:25.722Z,0
2023-06-10T01:11:42.016Z,0
2023-06-10T01:12:57.331Z,0
2023-06-10T01:14:13.626Z,0
2023-06-10T01:15:29.922Z,0
2023-06-10T01:18:02.493Z,0
2023-06-10T01:19:18.802Z,0
2023-06-10T01:20:35.095Z,0
2023-06-10T01:21:51.382Z,0
2023-06-10T01:23:07.683Z,0
2023-06-10T01:24:23.974Z,0
2023-06-10T01:25:40.265Z,0
2023-06-10T01:26:56.554Z,0
2023-06-10T01:28:12.842Z,0
2023-06-10T01:29:28.167Z,0
2023-06-10T01:30:44.459Z,0
2023-06-10T01:32:00.757Z,0
2023-06-10T01:34:33.340Z,0
2023-06-10T01:35:49.622Z,0
2023-06-10T01:37:05.923Z,0
2023-06-10T01:38:22.219Z,0
2023-06-10T01:39:38.520Z,0
2023-06-10T01:40:54.801Z,0
2023-06-10T01:42:11.093Z,0
2023-06-10T01:43:27.447Z,0
2023-06-10T01:44:43.685Z,0
2023-06-10T01:45:58.998Z,0
2023-06-10T01:47:15.284Z,0
2023-06-10T01:48:31.590Z,0
2023-06-10T01:49:47.884Z,0
2023-06-10T01:51:04.218Z,0
2023-06-10T01:52:20.472Z,0
2023-06-10T01:53:36.767Z,0
2023-06-10T01:54:53.045Z,0
2023-06-10T01:56:09.337Z,0
2023-06-10T01:57:25.643Z,0
2023-06-10T01:58:41.979Z,0
2023-06-10T01:59:58.221Z,0
2023-06-10T02:01:14.512Z,0
2023-06-10T02:02:29.828Z,0
2023-06-10T02:05:02.414Z,0
2023-06-10T02:06:18.714Z,0
2023-06-10T02:07:35.012Z,0
2023-06-10T02:08:51.287Z,0
2023-06-10T02:10:07.581Z,0
2023-06-10T02:11:23.890Z,0
2023-06-10T02:12:40.172Z,0
2023-06-10T02:13:56.416Z,0
2023-06-10T02:15:12.715Z,0
2023-06-10T02:16:29.001Z,0
2023-06-10T02:17:45.257Z,0
2023-06-10T02:19:00.503Z,0
2023-06-10T02:20:16.750Z,0
2023-06-10T02:21:32.997Z,0
2023-06-10T02:22:49.240Z,0
2023-06-10T02:24:05.485Z,0
2023-06-10T02:25:21.730Z,0
2023-06-10T02:26:37.954Z,0
2023-06-10T02:27:54.196Z,0
2023-06-10T02:29:10.436Z,0
2023-06-10T02:30:26.730Z,0
2023-06-10T02:31:42.912Z,0
2023-06-10T02:32:59.157Z,0
2023-06-10T02:34:15.396Z,0
2023-06-10T02:35:31.751Z,0
2023-06-10T02:36:47.993Z,0
2023-06-10T02:38:04.249Z,0
2023-06-10T02:39:20.483Z,0
2023-06-10T02:40:36.714Z,0
2023-06-10T02:41:52.950Z,0
2023-06-10T02:43:09.191Z,0
2023-06-10T02:44:25.437Z,0
2023-06-10T02:45:41.679Z,0
2023-06-10T02:46:57.918Z,0
2023-06-10T02:48:14.157Z,0
2023-06-10T02:49:30.387Z,0
2023-06-10T02:50:46.646Z,0
2023-06-10T02:52:01.887Z,0
2023-06-10T02:53:18.137Z,0
2023-06-10T02:54:34.363Z,0
2023-06-10T02:55:50.615Z,0
2023-06-10T02:57:06.860Z,0
2023-06-10T02:58:23.085Z,0
2023-06-10T02:59:39.338Z,0
2023-06-10T03:00:55.569Z,5
2023-06-10T03:02:11.813Z,5
2023-06-10T03:03:28.056Z,5
2023-06-10T03:04:44.284Z,5
2023-06-10T03:06:00.537Z,5
2023-06-10T03:07:16.771Z,5
2023-06-10T03:08:32.021Z,5
2023-06-10T03:09:48.255Z,5
2023-06-10T03:11:04.497Z,5
2023-06-10T03:12:20.749Z,11
2023-06-10T03:13:36.981Z,11
2023-06-10T03:14:53.214Z,11
2023-06-10T03:16:09.461Z,11
2023-06-10T03:17:25.697Z,11
2023-06-10T03:18:41.932Z,11
2023-06-10T03:19:58.184Z,11
2023-06-10T03:21:14.421Z,16
2023-06-10T03:22:30.662Z,16
2023-06-10T03:23:46.894Z,16
2023-06-10T03:25:02.155Z,16
2023-06-10T03:26:18.397Z,16
2023-06-10T03:27:34.644Z,16
2023-06-10T03:28:50.876Z,16
2023-06-10T03:30:07.111Z,22
2023-06-10T03:31:23.346Z,22
2023-06-10T03:32:39.601Z,22
2023-06-10T03:33:55.834Z,22
2023-06-10T03:35:12.072Z,22
2023-06-10T03:36:28.309Z,22
2023-06-10T03:37:44.555Z,28
2023-06-10T03:39:00.799Z,28
2023-06-10T03:40:17.035Z,28
2023-06-10T03:42:48.535Z,28
2023-06-10T03:44:04.774Z,28
2023-06-10T03:45:21.010Z,33
2023-06-10T03:46:37.248Z,33
2023-06-10T03:47:53.492Z,33
2023-06-10T03:49:09.720Z,33
2023-06-10T03:50:25.963Z,33
2023-06-10T03:51:42.212Z,39
2023-06-10T03:52:58.447Z,39
2023-06-10T03:54:14.693Z,39
2023-06-10T03:55:30.922Z,39
2023-06-10T03:56:47.173Z,39
2023-06-10T03:58:02.411Z,45
2023-06-10T03:59:18.651Z,45
2023-06-10T04:00:34.888Z,45
2023-06-10T04:01:51.144Z,45
2023-06-10T04:03:07.371Z,45
2023-06-10T04:04:23.617Z,50
2023-06-10T04:05:39.851Z,50
2023-06-10T04:06:56.000Z,50
2023-06-10T04:08:12.345Z,50
2023-06-10T04:09:28.576Z,50
2023-06-10T04:10:44.817Z,56
2023-06-10T04:12:01.054Z,56
2023-06-10T04:13:17.290Z,56
2023-06-10T04:14:33.535Z,56
2023-06-10T04:15:48.784Z,56
2023-06-10T04:17:05.036Z,61
2023-06-10T04:18:21.274Z,61
2023-06-10T04:19:37.504Z,61
2023-06-10T04:20:53.750Z,61
2023-06-10T04:22:09.991Z,67
2023-06-10T04:23:26.228Z,67
2023-06-10T04:24:42.473Z,67
2023-06-10T04:25:58.710Z,67
2023-06-10T04:27:14.945Z,73
2023-06-10T04:28:31.197Z,73
2023-06-10T04:29:47.427Z,73
2023-06-10T04:31:03.671Z,73
2023-06-10T04:32:18.932Z,78
2023-06-10T04:33:35.168Z,78
2023-06-10T04:34:51.410Z,78
2023-06-10T04:36:07.642Z,78
2023-06-10T04:37:23.885Z,78
2023-06-10T04:38:40.121Z,78
2023-06-10T04:39:56.356Z,78
2023-06-10T04:41:12.597Z,84
2023-06-10T04:42:28.847Z,90
2023-06-10T04:43:45.073Z,84
2023-06-10T04:45:01.318Z,84
2023-06-10T04:46:17.567Z,90
2023-06-10T04:47:33.803Z,90
2023-06-10T04:48:49.058Z,90
2023-06-10T04:50:05.292Z,95
2023-06-10T04:51:21.537Z,95
2023-06-10T04:52:37.779Z,95
2023-06-10T04:53:54.013Z,95
2023-06-10T04:55:10.258Z,101
2023-06-10T04:56:26.502Z,101
2023-06-10T04:57:42.739Z,101
2023-06-10T04:58:58.969Z,101
2023-06-10T05:00:15.220Z,106
2023-06-10T05:01:31.442Z,106
2023-06-10T05:02:47.699Z,106
2023-06-10T05:04:03.935Z,112
2023-06-10T05:05:19.186Z,112
2023-06-10T05:06:35.419Z,118
2023-06-10T05:07:51.669Z,118
2023-06-10T05:09:07.895Z,123
2023-06-10T05:10:23.172Z,123
2023-06-10T05:11:39.399Z,129
2023-06-10T05:12:55.645Z,129
2023-06-10T05:14:11.890Z,135
2023-06-10T05:15:28.124Z,135
2023-06-10T05:16:44.355Z,135
2023-06-10T05:18:00.611Z,135
2023-06-10T05:19:16.836Z,140
2023-06-10T05:20:33.090Z,140
2023-06-10T05:21:49.326Z,146
2023-06-10T05:23:05.558Z,146
2023-06-10T05:24:21.800Z,151
2023-06-10T05:25:38.036Z,151
2023-06-10T05:26:53.300Z,157
2023-06-10T05:28:09.546Z,157
2023-06-10T05:29:25.781Z,163
2023-06-10T05:30:42.019Z,163
2023-06-10T05:31:58.250Z,163
2023-06-10T05:33:14.490Z,168
2023-06-10T05:34:30.738Z,168
2023-06-10T05:35:46.978Z,168
2023-06-10T05:37:03.206Z,168
2023-06-10T05:38:19.452Z,174
2023-06-10T05:39:35.684Z,174
2023-06-10T05:40:51.940Z,174
2023-06-10T05:42:08.175Z,180
2023-06-10T05:43:23.429Z,180
2023-06-10T05:44:39.659Z,185
2023-06-10T05:45:55.901Z,185
2023-06-10T05:47:12.155Z,191
2023-06-10T05:48:28.381Z,191
2023-06-10T05:49:44.622Z,196
2023-06-10T05:51:00.871Z,202
2023-06-10T05:52:17.103Z,202
2023-06-10T05:53:33.353Z,202
2023-06-10T05:54:49.588Z,208
2023-06-10T05:56:05.818Z,208
2023-06-10T05:57:22.072Z,213
2023-06-10T05:58:38.301Z,213
2023-06-10T05:59:53.556Z,219
2023-06-10T06:01:09.795Z,219
2023-06-10T06:02:26.041Z,225
2023-06-10T06:03:42.283Z,225
2023-06-10T06:04:58.519Z,230
2023-06-10T06:06:14.764Z,230
2023-06-10T06:07:30.992Z,236
2023-06-10T06:08:47.232Z,241
2023-06-10T06:10:03.477Z,241
2023-06-10T06:11:19.713Z,247
2023-06-10T06:12:35.951Z,253
2023-06-10T06:13:52.199Z,258
2023-06-10T06:15:08.446Z,264
2023-06-10T06:16:24.682Z,264
2023-06-10T06:17:39.924Z,270
2023-06-10T06:18:56.189Z,270
2023-06-10T06:20:12.416Z,270
2023-06-10T06:21:28.657Z,270
2023-06-10T06:22:44.880Z,275
2023-06-10T06:24:01.129Z,275
2023-06-10T06:25:17.360Z,281
2023-06-10T06:26:33.602Z,281
2023-06-10T06:27:49.852Z,286
2023-06-10T06:29:06.098Z,286
2023-06-10T06:30:22.337Z,292
2023-06-10T06:31:38.560Z,292
2023-06-10T06:32:54.817Z,298
2023-06-10T06:34:10.054Z,298
2023-06-10T06:35:26.310Z,309
2023-06-10T06:36:42.549Z,303
2023-06-10T06:37:58.791Z,309
2023-06-10T06:39:15.013Z,309
2023-06-10T06:40:31.262Z,315
2023-06-10T06:41:47.506Z,315
2023-06-10T06:43:03.744Z,315
2023-06-10T06:44:19.993Z,320
2023-06-10T06:45:36.230Z,326
2023-06-10T06:46:52.461Z,326
2023-06-10T06:48:08.699Z,326
2023-06-10T06:49:24.934Z,331
2023-06-10T06:50:40.191Z,331
2023-06-10T06:51:56.441Z,331
2023-06-10T06:53:12.685Z,331
2023-06-10T06:54:28.913Z,331
2023-06-10T06:55:45.158Z,337
2023-06-10T06:57:01.397Z,337
2023-06-10T06:58:17.642Z,337
2023-06-10T06:59:33.880Z,343
2023-06-10T07:00:50.124Z,343
2023-06-10T07:02:06.348Z,348
2023-06-10T07:03:22.606Z,348
2023-06-10T07:04:38.827Z,354
2023-06-10T07:05:55.073Z,354
2023-06-10T07:07:10.337Z,360
2023-06-10T07:08:26.582Z,360
2023-06-10T07:09:42.822Z,360
2023-06-10T07:10:59.041Z,360
2023-06-10T07:12:15.296Z,365
2023-06-10T07:13:31.529Z,365
2023-06-10T07:14:47.762Z,371
2023-06-10T07:16:04.005Z,371
2023-06-10T07:17:20.250Z,371
2023-06-10T07:18:36.496Z,376
2023-06-10T07:19:52.733Z,376
2023-06-10T07:21:08.969Z,376
2023-06-10T07:22:25.219Z,382
2023-06-10T07:23:40.462Z,382
2023-06-10T07:24:56.710Z,393
2023-06-10T07:26:12.954Z,388
2023-06-10T07:27:29.178Z,388
2023-06-10T07:28:45.431Z,388
2023-06-10T07:30:01.667Z,393
2023-06-10T07:31:17.905Z,393
2023-06-10T07:32:34.143Z,405
2023-06-10T07:33:50.394Z,399
2023-06-10T07:35:06.645Z,405
2023-06-10T07:36:22.864Z,405
2023-06-10T07:38:55.341Z,410
2023-06-10T07:40:11.576Z,410
2023-06-10T07:41:26.845Z,416
2023-06-10T07:42:43.078Z,427
2023-06-10T07:43:59.316Z,433
2023-06-10T07:45:15.570Z,427
2023-06-10T07:46:31.795Z,421
2023-06-10T07:47:48.044Z,421
2023-06-10T07:49:04.274Z,427
2023-06-10T07:50:20.513Z,427
2023-06-10T07:51:36.767Z,433
2023-06-10T07:52:52.997Z,433
2023-06-10T07:55:25.487Z,433
2023-06-10T07:56:41.725Z,438
2023-06-10T07:57:56.976Z,438
2023-06-10T07:59:13.216Z,444
2023-06-10T08:00:29.451Z,444
2023-06-10T08:01:45.689Z,450
2023-06-10T08:03:01.926Z,450
2023-06-10T08:04:18.183Z,450
2023-06-10T08:05:34.422Z,450
2023-06-10T08:06:50.662Z,450
2023-06-10T08:08:06.902Z,444
2023-06-10T08:09:23.135Z,444
2023-06-10T08:10:39.374Z,450
2023-06-10T08:11:55.621Z,455
2023-06-10T08:13:11.871Z,455
2023-06-10T08:14:27.098Z,461
2023-06-10T08:15:43.358Z,461
2023-06-10T08:16:59.595Z,466
2023-06-10T08:18:15.840Z,466
2023-06-10T08:19:32.079Z,472
2023-06-10T08:20:48.313Z,472
2023-06-10T08:22:04.542Z,472
2023-06-10T08:23:20.785Z,472
2023-06-10T08:24:37.023Z,478
2023-06-10T08:25:53.261Z,478
2023-06-10T08:27:09.508Z,478
2023-06-10T08:28:25.741Z,483
2023-06-10T08:29:41.993Z,483
2023-06-10T08:30:57.248Z,483
2023-06-10T08:32:13.487Z,483
2023-06-10T08:33:29.718Z,483
2023-06-10T08:34:45.949Z,489
2023-06-10T08:36:02.207Z,489
2023-06-10T08:37:18.437Z,489
2023-06-10T08:38:34.684Z,495
2023-06-10T08:39:50.910Z,500
2023-06-10T08:41:07.147Z,495
2023-06-10T08:42:23.388Z,500
2023-06-10T08:43:39.637Z,500
2023-06-10T08:44:55.877Z,506
2023-06-10T08:46:12.111Z,511
2023-06-10T08:47:27.366Z,506
2023-06-10T08:48:43.621Z,506
2023-06-10T08:49:59.852Z,506
2023-06-10T08:51:16.086Z,511
2023-06-10T08:52:32.332Z,511
2023-06-10T08:53:48.562Z,511
2023-06-10T08:55:04.819Z,511
2023-06-10T08:56:21.059Z,511
2023-06-10T08:57:37.303Z,511
2023-06-10T08:58:53.532Z,517
2023-06-10T09:00:09.776Z,511
2023-06-10T09:01:26.018Z,517
2023-06-10T09:02:42.244Z,517
2023-06-10T09:03:58.489Z,517
2023-06-10T09:05:13.740Z,523
2023-06-10T09:06:29.982Z,523
2023-06-10T09:07:46.235Z,523
2023-06-10T09:09:02.464Z,528
2023-06-10T09:10:18.699Z,528
2023-06-10T09:11:34.952Z,528
2023-06-10T09:12:51.189Z,523
2023-06-10T09:14:07.417Z,528
2023-06-10T09:15:23.672Z,517
2023-06-10T09:16:39.913Z,528
2023-06-10T09:19:12.399Z,528
2023-06-10T09:20:28.623Z,528
2023-06-10T09:21:43.889Z,534
2023-06-10T09:23:00.115Z,534
2023-06-10T09:24:16.363Z,545
2023-06-10T09:25:31.628Z,551
2023-06-10T09:26:47.862Z,568
2023-06-10T09:28:04.104Z,562
2023-06-10T09:29:20.349Z,562
2023-06-10T09:30:36.000Z,551
2023-06-10T09:31:52.832Z,534
2023-06-10T09:33:09.059Z,534
2023-06-10T09:34:25.321Z,528
2023-06-10T09:35:41.550Z,528
2023-06-10T09:36:57.787Z,534
2023-06-10T09:38:14.031Z,523
2023-06-10T09:39:30.256Z,540
2023-06-10T09:40:46.507Z,523
2023-06-10T09:42:02.746Z,523
2023-06-10T09:43:18.007Z,506
2023-06-10T09:44:34.234Z,523
2023-06-10T09:45:50.486Z,534
2023-06-10T09:47:06.719Z,343
2023-06-10T09:48:22.961Z,517
2023-06-10T09:49:39.189Z,528
2023-06-10T09:50:55.446Z,517
2023-06-10T09:52:11.682Z,528
2023-06-10T09:53:27.911Z,523
2023-06-10T09:54:44.150Z,511
2023-06-10T09:56:00.394Z,523
2023-06-10T09:57:16.651Z,511
2023-06-10T09:58:32.877Z,320
2023-06-10T09:59:48.132Z,511
2023-06-10T10:01:04.379Z,506
2023-06-10T10:02:20.619Z,500
2023-06-10T10:03:36.860Z,489
2023-06-10T10:04:53.088Z,337
2023-06-10T10:06:09.323Z,500
2023-06-10T10:07:25.588Z,500
2023-06-10T10:08:41.805Z,489
2023-06-10T10:09:58.059Z,455
2023-06-10T10:11:14.298Z,455
2023-06-10T10:12:30.542Z,472
2023-06-10T10:13:46.764Z,466
2023-06-10T10:15:03.004Z,444
2023-06-10T10:16:18.273Z,433
2023-06-10T10:17:34.510Z,438
2023-06-10T10:18:50.743Z,421
2023-06-10T10:20:06.978Z,416
2023-06-10T10:21:23.229Z,331
2023-06-10T10:22:39.459Z,393
2023-06-10T10:23:55.706Z,393
2023-06-10T10:25:11.945Z,388
2023-06-10T10:26:28.193Z,376
2023-06-10T10:27:44.424Z,393
2023-06-10T10:29:00.671Z,382
2023-06-10T10:30:16.916Z,337
2023-06-10T10:31:33.150Z,371
2023-06-10T10:32:48.409Z,371
2023-06-10T10:34:04.640Z,331
2023-06-10T10:35:20.877Z,303
2023-06-10T10:36:37.126Z,354
2023-06-10T10:37:53.365Z,331
2023-06-10T10:39:09.607Z,343
2023-06-10T10:40:25.845Z,343
2023-06-10T10:41:42.074Z,343
2023-06-10T10:42:58.313Z,348
2023-06-10T10:44:14.570Z,348
2023-06-10T10:45:30.794Z,354
2023-06-10T10:46:47.045Z,354
2023-06-10T10:48:03.272Z,337
2023-06-10T10:49:18.546Z,348
2023-06-10T10:50:34.782Z,354
2023-06-10T10:51:51.029Z,337
2023-06-10T10:53:07.258Z,281
2023-06-10T10:54:23.491Z,298
2023-06-10T10:55:39.746Z,281
2023-06-10T10:56:55.970Z,320
2023-06-10T10:58:12.219Z,320
2023-06-10T10:59:28.455Z,315
2023-06-10T11:00:44.698Z,315
2023-06-10T11:02:00.936Z,315
2023-06-10T11:03:17.175Z,281
2023-06-10T11:04:33.412Z,315
2023-06-10T11:05:49.653Z,315
2023-06-10T11:07:04.922Z,320
2023-06-10T11:08:21.162Z,315
2023-06-10T11:09:37.395Z,315
2023-06-10T11:10:53.634Z,298
2023-06-10T11:12:09.868Z,326
2023-06-10T11:13:26.108Z,315
2023-06-10T11:14:42.345Z,303
2023-06-10T11:15:58.584Z,298
2023-06-10T11:17:14.841Z,253
2023-06-10T11:18:31.077Z,230
2023-06-10T11:19:47.320Z,236
2023-06-10T11:21:03.546Z,247
2023-06-10T11:22:19.795Z,253
2023-06-10T11:23:35.050Z,247
2023-06-10T11:24:51.285Z,225
2023-06-10T11:26:07.533Z,230
2023-06-10T11:27:23.764Z,230
2023-06-10T11:28:40.012Z,208
2023-06-10T11:29:56.255Z,180
2023-06-10T11:31:12.505Z,168
2023-06-10T11:32:28.731Z,163
2023-06-10T11:33:44.960Z,174
2023-06-10T11:35:01.210Z,180
2023-06-10T11:36:17.452Z,208
2023-06-10T11:37:33.676Z,230
2023-06-10T11:38:49.938Z,258
2023-06-10T11:40:05.184Z,270
2023-06-10T11:41:21.437Z,281
2023-06-10T11:42:37.651Z,286
2023-06-10T11:43:53.921Z,292
2023-06-10T11:45:10.136Z,298
2023-06-10T11:46:26.380Z,264
2023-06-10T11:47:42.623Z,258
2023-06-10T11:48:58.864Z,281
2023-06-10T11:50:15.108Z,258
2023-06-10T11:51:31.347Z,219
2023-06-10T11:52:47.575Z,208
2023-06-10T11:54:03.816Z,191
2023-06-10T11:55:20.055Z,174
2023-06-10T11:56:35.332Z,174
2023-06-10T11:57:51.559Z,174
2023-06-10T11:59:07.803Z,174
2023-06-10T12:00:24.036Z,174
2023-06-10T12:01:40.268Z,174
2023-06-10T12:02:56.509Z,163
2023-06-10T12:04:12.760Z,163
2023-06-10T12:05:28.981Z,163
2023-06-10T12:06:45.232Z,163
2023-06-10T12:08:01.463Z,163
2023-06-10T12:09:17.714Z,168
2023-06-10T12:10:33.947Z,174
2023-06-10T12:11:50.192Z,180
2023-06-10T12:13:05.450Z,196
2023-06-10T12:14:21.692Z,225
2023-06-10T12:15:37.927Z,230
2023-06-10T12:16:54.168Z,258
2023-06-10T12:18:10.401Z,264
2023-06-10T12:19:26.636Z,270
2023-06-10T12:20:42.888Z,275
2023-06-10T12:21:59.119Z,258
2023-06-10T12:24:31.608Z,315
2023-06-10T12:25:47.846Z,309
2023-06-10T12:27:04.078Z,309
2023-06-10T12:28:20.317Z,309
2023-06-10T12:30:52.809Z,298
2023-06-10T12:32:08.050Z,298
2023-06-10T12:33:24.318Z,303
2023-06-10T12:34:40.533Z,315
2023-06-10T12:35:56.782Z,320
2023-06-10T12:37:13.034Z,326
2023-06-10T12:38:29.250Z,315
2023-06-10T12:39:45.493Z,281
2023-06-10T12:41:01.729Z,258
2023-06-10T12:42:17.972Z,241
2023-06-10T12:43:34.207Z,230
2023-06-10T12:44:50.466Z,225
2023-06-10T12:46:06.719Z,213
2023-06-10T12:47:22.931Z,208
2023-06-10T12:48:38.181Z,191
2023-06-10T12:49:54.429Z,202
2023-06-10T12:51:10.663Z,185
2023-06-10T12:52:26.909Z,157
2023-06-10T12:53:43.171Z,140
2023-06-10T12:54:59.386Z,123
2023-06-10T12:56:15.620Z,112
2023-06-10T12:57:31.866Z,95
2023-06-10T12:58:48.103Z,90
2023-06-10T13:00:04.375Z,90
2023-06-10T13:01:20.583Z,84
2023-06-10T13:02:36.823Z,78
2023-06-10T13:03:53.057Z,78
2023-06-10T13:05:08.321Z,73
2023-06-10T13:06:24.557Z,73
2023-06-10T13:07:40.829Z,73
2023-06-10T13:08:57.034Z,73
2023-06-10T13:10:13.277Z,73
2023-06-10T13:11:29.519Z,73
2023-06-10T13:12:45.768Z,73
2023-06-10T13:14:01.996Z,78
2023-06-10T13:15:18.241Z,84
2023-06-10T13:16:34.483Z,84
2023-06-10T13:17:50.739Z,90
2023-06-10T13:19:06.959Z,95
2023-06-10T13:20:23.203Z,95
2023-06-10T13:22:54.718Z,112
2023-06-10T13:24:10.955Z,118
2023-06-10T13:25:27.173Z,118
2023-06-10T13:26:43.419Z,135
2023-06-10T13:27:59.658Z,140
2023-06-10T13:29:15.901Z,135
2023-06-10T13:30:32.135Z,135
2023-06-10T13:31:48.377Z,135
2023-06-10T13:33:04.621Z,146
2023-06-10T13:34:20.851Z,151
2023-06-10T13:35:37.091Z,168
2023-06-10T13:36:53.333Z,163
2023-06-10T13:38:09.572Z,151
2023-06-10T13:39:24.818Z,157
2023-06-10T13:40:40.092Z,151
2023-06-10T13:41:56.338Z,151
2023-06-10T13:43:12.575Z,163
2023-06-10T13:44:28.814Z,174
2023-06-10T13:45:45.044Z,180
2023-06-10T13:47:01.291Z,196
2023-06-10T13:48:17.525Z,191
2023-06-10T13:49:33.775Z,174
2023-06-10T13:50:50.028Z,174
2023-06-10T13:52:06.256Z,168
2023-06-10T13:53:22.483Z,180
2023-06-10T13:54:38.729Z,168
2023-06-10T13:55:54.957Z,151
2023-06-10T13:57:10.211Z,146
2023-06-10T13:58:26.455Z,140
2023-06-10T13:59:42.736Z,135
2023-06-10T14:00:58.939Z,135
2023-06-10T14:02:15.188Z,135
2023-06-10T14:03:31.411Z,146
2023-06-10T14:04:47.653Z,135
2023-06-10T14:06:03.900Z,140
2023-06-10T14:07:20.148Z,140
2023-06-10T14:08:36.383Z,135
2023-06-10T14:09:52.625Z,129
2023-06-10T14:11:08.855Z,135
2023-06-10T14:12:25.092Z,135
2023-06-10T14:13:40.363Z,146
2023-06-10T14:14:56.594Z,140
2023-06-10T14:16:12.840Z,140
2023-06-10T14:17:29.078Z,135
2023-06-10T14:18:45.318Z,135
2023-06-10T14:20:01.555Z,135
2023-06-10T14:21:17.787Z,135
2023-06-10T14:22:34.032Z,135
2023-06-10T14:23:50.262Z,135
2023-06-10T14:25:06.517Z,135
2023-06-10T14:26:22.752Z,129
2023-06-10T14:27:38.985Z,129
2023-06-10T14:28:55.223Z,129
2023-06-10T14:30:10.478Z,129
2023-06-10T14:31:26.726Z,135
2023-06-10T14:32:42.974Z,135
2023-06-10T14:33:59.208Z,129
2023-06-10T14:35:15.452Z,129
2023-06-10T14:36:31.684Z,129
2023-06-10T14:37:47.918Z,129
2023-06-10T14:39:04.168Z,129
2023-06-10T14:40:20.405Z,135
2023-06-10T14:42:52.888Z,135
2023-06-10T14:44:09.126Z,135
2023-06-10T14:45:25.393Z,135
2023-06-10T14:46:41.594Z,135
2023-06-10T14:47:56.858Z,151
2023-06-10T14:49:13.093Z,146
2023-06-10T14:50:29.338Z,146
2023-06-10T14:51:45.583Z,163
2023-06-10T14:53:01.812Z,157
2023-06-10T14:54:18.064Z,180
2023-06-10T14:55:34.324Z,163
2023-06-10T14:56:50.539Z,151
2023-06-10T14:58:06.804Z,151
2023-06-10T14:59:23.022Z,196
2023-06-10T15:00:39.253Z,196
2023-06-10T15:01:55.499Z,191
2023-06-10T15:03:11.728Z,191
2023-06-10T15:04:26.983Z,185
2023-06-10T15:05:43.229Z,180
2023-06-10T15:06:59.480Z,180
2023-06-10T15:08:15.704Z,180
2023-06-10T15:09:31.950Z,174
2023-06-10T15:10:48.214Z,163
2023-06-10T15:12:04.432Z,168
2023-06-10T15:13:20.701Z,163
2023-06-10T15:14:36.917Z,163
2023-06-10T15:15:53.159Z,157
2023-06-10T15:17:09.381Z,151
2023-06-10T15:18:25.630Z,146
2023-06-10T15:19:41.865Z,123
2023-06-10T15:20:57.123Z,135
2023-06-10T15:22:13.367Z,140
2023-06-10T15:23:29.605Z,146
2023-06-10T15:24:45.871Z,140
2023-06-10T15:26:02.079Z,146
2023-06-10T15:27:18.319Z,146
2023-06-10T15:28:34.558Z,146
2023-06-10T15:29:50.837Z,146
2023-06-10T15:31:07.040Z,146
2023-06-10T15:32:23.291Z,146
2023-06-10T15:33:39.552Z,140
2023-06-10T15:34:55.760Z,146
2023-06-10T15:36:12.005Z,140
2023-06-10T15:37:27.247Z,140
2023-06-10T15:38:43.494Z,146
2023-06-10T15:39:59.731Z,140
2023-06-10T15:41:15.973Z,140
2023-06-10T15:42:32.240Z,140
2023-06-10T15:43:48.449Z,146
2023-06-10T15:45:04.686Z,140
2023-06-10T15:46:20.939Z,146
2023-06-10T15:48:53.412Z,140
2023-06-10T15:50:09.650Z,135
2023-06-10T15:51:25.919Z,135
2023-06-10T15:52:42.172Z,129
2023-06-10T15:53:57.380Z,129
2023-06-10T15:55:13.625Z,129
2023-06-10T15:56:29.866Z,129
2023-06-10T15:57:46.103Z,129
2023-06-10T15:59:02.351Z,129
2023-06-10T16:00:18.580Z,129
2023-06-10T16:01:34.834Z,129
2023-06-10T16:02:51.060Z,129
2023-06-10T16:04:07.308Z,129
2023-06-10T16:05:23.538Z,129
2023-06-10T16:06:39.777Z,129
2023-06-10T16:07:56.026Z,129
2023-06-10T16:09:12.265Z,129
2023-06-10T16:10:28.505Z,129
2023-06-10T16:11:43.793Z,129
2023-06-10T16:12:59.997Z,129
2023-06-10T16:14:16.272Z,129
2023-06-10T16:15:32.489Z,129
2023-06-10T16:16:48.720Z,129
2023-06-10T16:18:04.950Z,135
2023-06-10T16:19:21.192Z,135
2023-06-10T16:20:37.435Z,129
2023-06-10T16:21:53.681Z,123
2023-06-10T16:23:09.918Z,112
2023-06-10T16:24:26.166Z,112
2023-06-10T16:25:42.389Z,106
2023-06-10T16:26:58.000Z,106
2023-06-10T16:28:13.896Z,106
2023-06-10T16:29:30.132Z,101
2023-06-10T16:30:46.382Z,112
2023-06-10T16:32:02.602Z,118
2023-06-10T16:33:18.856Z,101
2023-06-10T16:34:35.091Z,95
2023-06-10T16:35:51.327Z,101
2023-06-10T16:37:07.573Z,101
2023-06-10T16:38:23.812Z,101
2023-06-10T16:39:40.057Z,101
2023-06-10T16:40:56.291Z,101
2023-06-10T16:42:12.531Z,95
2023-06-10T16:43:28.773Z,106
2023-06-10T16:44:44.024Z,90
2023-06-10T16:46:00.266Z,90
2023-06-10T16:47:16.508Z,90
2023-06-10T16:48:32.737Z,95
2023-06-10T16:49:48.995Z,90
2023-06-10T16:51:05.219Z,90
2023-06-10T16:52:21.455Z,95
2023-06-10T16:53:37.713Z,90
2023-06-10T16:54:53.946Z,90
2023-06-10T16:56:10.194Z,90
2023-06-10T16:57:26.418Z,90
2023-06-10T16:58:42.657Z,90
2023-06-10T16:59:58.902Z,90
2023-06-10T17:01:14.163Z,84
2023-06-10T17:02:30.394Z,84
2023-06-10T17:03:46.630Z,84
2023-06-10T17:05:02.875Z,78
2023-06-10T17:06:19.150Z,78
2023-06-10T17:07:35.348Z,73
2023-06-10T17:08:51.596Z,73
2023-06-10T17:10:07.841Z,67
2023-06-10T17:11:24.075Z,61
2023-06-10T17:12:40.323Z,61
2023-06-10T17:13:56.546Z,61
2023-06-10T17:15:12.802Z,61
2023-06-10T17:16:29.028Z,56
2023-06-10T17:17:44.297Z,56
2023-06-10T17:19:00.523Z,56
2023-06-10T17:20:16.771Z,56
2023-06-10T17:21:33.009Z,56
2023-06-10T17:22:49.245Z,56
2023-06-10T17:24:05.479Z,50
2023-06-10T17:25:21.734Z,50
2023-06-10T17:26:37.972Z,50
2023-06-10T17:27:54.202Z,50
2023-06-10T17:29:10.447Z,50
2023-06-10T17:30:26.681Z,50
2023-06-10T17:31:42.919Z,50
2023-06-10T17:32:59.176Z,50
2023-06-10T17:34:15.452Z,50
2023-06-10T17:35:30.698Z,50
2023-06-10T17:36:46.897Z,50
2023-06-10T17:38:03.182Z,50
2023-06-10T17:39:19.377Z,50
2023-06-10T17:40:35.618Z,50
2023-06-10T17:41:51.860Z,50
2023-06-10T17:43:08.091Z,45
2023-06-10T17:44:24.336Z,45
2023-06-10T17:45:40.574Z,45
2023-06-10T17:46:56.849Z,45
2023-06-10T17:48:13.064Z,45
2023-06-10T17:49:29.292Z,45
2023-06-10T17:50:45.544Z,45
2023-06-10T17:52:00.783Z,45
2023-06-10T17:53:17.028Z,45
2023-06-10T17:54:33.268Z,45
2023-06-10T17:55:48.525Z,45
2023-06-10T17:57:04.776Z,39
2023-06-10T17:58:21.042Z,39
2023-06-10T17:59:37.245Z,39
2023-06-10T18:00:53.494Z,39
2023-06-10T18:02:09.735Z,39
2023-06-10T18:03:26.006Z,39
2023-06-10T18:04:42.218Z,39